createdAt,value
2022-09-14T00:01:26.499Z,18.20
2022-09-14T00:03:56.167Z,18.20
2022-09-14T00:06:25.644Z,18.10
2022-09-14T00:08:55.360Z,18.10
2022-09-14T00:11:24.937Z,18.10
2022-09-14T00:13:54.215Z,18.10
2022-09-14T00:16:24.074Z,18.10
2022-09-14T00:18:53.228Z,18.00
2022-09-14T00:21:22.048Z,18.00
2022-09-14T00:23:51.362Z,18.00
2022-09-14T00:26:21.525Z,18.00
2022-09-14T00:28:52.318Z,17.90
2022-09-14T00:31:21.444Z,17.90
2022-09-14T00:33:51.075Z,17.90
2022-09-14T00:36:20.948Z,17.90
2022-09-14T00:38:49.364Z,17.90
2022-09-14T00:41:24.296Z,17.90
2022-09-14T00:43:57.986Z,17.90
2022-09-14T00:46:27.895Z,17.90
2022-09-14T00:48:56.768Z,17.90
2022-09-14T00:51:25.568Z,17.80
2022-09-14T00:53:53.705Z,17.80
2022-09-14T00:56:22.992Z,17.80
2022-09-14T00:58:52.885Z,17.80
2022-09-14T01:01:21.310Z,17.80
2022-09-14T01:03:49.811Z,17.80
2022-09-14T01:06:24.738Z,17.80
2022-09-14T01:09:04.125Z,17.80
2022-09-14T01:11:51.512Z,17.70
2022-09-14T01:14:29.082Z,17.70
2022-09-14T01:17:04.343Z,17.70
2022-09-14T01:19:43.065Z,17.70
2022-09-14T01:22:15.095Z,17.70
2022-09-14T01:24:49.535Z,17.70
2022-09-14T01:27:30.121Z,17.60
2022-09-14T01:30:05.599Z,17.70
2022-09-14T01:32:39.440Z,17.60
2022-09-14T01:35:15.977Z,17.60
2022-09-14T01:37:48.489Z,17.60
2022-09-14T01:40:20.618Z,17.60
2022-09-14T01:42:54.425Z,17.60
2022-09-14T01:45:25.375Z,17.70
2022-09-14T01:47:56.915Z,17.60
2022-09-14T01:50:31.192Z,17.70
2022-09-14T01:53:06.251Z,17.70
2022-09-14T01:55:38.013Z,17.70
2022-09-14T01:58:13.456Z,17.70
2022-09-14T02:00:46.377Z,17.70
2022-09-14T02:03:20.325Z,17.70
2022-09-14T02:05:55.618Z,17.70
2022-09-14T02:08:24.311Z,17.80
2022-09-14T02:10:52.230Z,17.80
2022-09-14T02:13:21.749Z,17.80
2022-09-14T02:15:49.723Z,17.80
2022-09-14T02:18:17.733Z,17.80
2022-09-14T02:20:48.463Z,17.80
2022-09-14T02:23:16.875Z,17.80
2022-09-14T02:25:45.013Z,17.70
2022-09-14T02:28:12.860Z,17.70
2022-09-14T02:30:50.233Z,17.70
2022-09-14T02:33:23.856Z,17.70
2022-09-14T02:35:55.060Z,17.70
2022-09-14T02:38:30.322Z,17.70
2022-09-14T02:41:04.088Z,17.70
2022-09-14T02:43:38.534Z,17.70
2022-09-14T02:46:17.448Z,17.60
2022-09-14T02:48:51.813Z,17.60
2022-09-14T02:51:31.600Z,17.60
2022-09-14T02:54:04.694Z,17.60
2022-09-14T02:56:34.038Z,17.50
2022-09-14T02:59:02.005Z,17.60
2022-09-14T03:01:31.348Z,17.60
2022-09-14T03:03:59.336Z,17.60
2022-09-14T03:06:27.181Z,17.60
2022-09-14T03:08:55.092Z,17.60
2022-09-14T03:11:22.933Z,17.60
2022-09-14T03:13:50.827Z,17.60
2022-09-14T03:16:20.768Z,17.60
2022-09-14T03:18:50.078Z,17.60
2022-09-14T03:21:19.610Z,17.60
2022-09-14T03:23:49.616Z,17.60
2022-09-14T03:26:20.691Z,17.60
2022-09-14T03:28:51.967Z,17.60
2022-09-14T03:31:20.411Z,17.60
2022-09-14T03:33:53.924Z,17.60
2022-09-14T03:36:22.480Z,17.60
2022-09-14T03:38:51.650Z,17.60
2022-09-14T03:41:20.525Z,17.60
2022-09-14T03:43:48.738Z,17.60
2022-09-14T03:46:18.146Z,17.70
2022-09-14T03:48:46.977Z,17.70
2022-09-14T03:51:16.412Z,17.70
2022-09-14T03:53:45.458Z,17.70
2022-09-14T03:56:16.138Z,17.70
2022-09-14T03:58:44.808Z,17.70
2022-09-14T04:01:15.543Z,17.70
2022-09-14T04:03:43.768Z,17.70
2022-09-14T04:06:11.893Z,17.70
2022-09-14T04:08:42.583Z,17.70
2022-09-14T04:11:11.625Z,17.70
2022-09-14T04:13:39.792Z,17.80
2022-09-14T04:16:07.784Z,17.80
2022-09-14T04:18:35.642Z,17.80
2022-09-14T04:21:08.451Z,17.80
2022-09-14T04:23:51.363Z,17.80
2022-09-14T04:26:28.089Z,17.80
2022-09-14T04:28:56.856Z,17.80
2022-09-14T04:31:25.538Z,17.80
2022-09-14T04:33:56.170Z,17.80
2022-09-14T04:36:28.053Z,17.80
2022-09-14T04:38:57.136Z,17.80
2022-09-14T04:41:27.512Z,17.80
2022-09-14T04:43:56.449Z,17.80
2022-09-14T04:46:26.891Z,17.80
2022-09-14T04:48:55.140Z,17.80
2022-09-14T04:51:24.502Z,17.80
2022-09-14T04:53:55.052Z,17.80
2022-09-14T04:56:24.308Z,17.90
2022-09-14T04:58:55.125Z,17.90
2022-09-14T05:01:24.857Z,17.90
2022-09-14T05:03:53.360Z,17.90
2022-09-14T05:06:24.176Z,17.90
2022-09-14T05:08:53.351Z,17.90
2022-09-14T05:11:22.597Z,17.90
2022-09-14T05:13:51.577Z,17.90
2022-09-14T05:16:22.946Z,17.90
2022-09-14T05:18:51.721Z,17.90
2022-09-14T05:21:21.604Z,17.90
2022-09-14T05:23:53.934Z,17.90
2022-09-14T05:26:21.902Z,17.90
2022-09-14T05:28:53.234Z,17.90
2022-09-14T05:31:23.809Z,17.90
2022-09-14T05:33:52.753Z,17.90
2022-09-14T05:36:21.031Z,17.90
2022-09-14T05:38:48.989Z,17.90
2022-09-14T05:41:17.591Z,17.90
2022-09-14T05:43:45.689Z,17.90
2022-09-14T05:46:15.571Z,17.90
2022-09-14T05:48:45.304Z,17.90
2022-09-14T05:51:15.785Z,17.90
2022-09-14T05:53:44.029Z,17.90
2022-09-14T05:56:14.099Z,17.90
2022-09-14T05:58:43.299Z,17.90
2022-09-14T06:01:12.790Z,17.90
2022-09-14T06:03:41.408Z,17.90
2022-09-14T06:06:13.009Z,17.90
2022-09-14T06:08:41.497Z,17.90
2022-09-14T06:11:13.383Z,17.90
2022-09-14T06:13:41.162Z,17.90
2022-09-14T06:16:10.944Z,18.00
2022-09-14T06:18:40.092Z,18.00
2022-09-14T06:21:11.296Z,18.00
2022-09-14T06:23:39.548Z,18.00
2022-09-14T06:26:08.093Z,18.00
2022-09-14T06:28:36.439Z,18.10
2022-09-14T06:31:07.413Z,18.00
2022-09-14T06:33:35.535Z,18.10
2022-09-14T06:36:05.232Z,18.10
2022-09-14T06:38:34.526Z,18.10
2022-09-14T06:41:06.327Z,18.10
2022-09-14T06:43:36.184Z,18.10
2022-09-14T06:46:05.966Z,18.10
2022-09-14T06:48:36.100Z,18.10
2022-09-14T06:51:13.599Z,18.10
2022-09-14T06:53:42.990Z,18.20
2022-09-14T06:56:11.145Z,18.20
2022-09-14T06:58:39.151Z,18.20
2022-09-14T07:01:08.997Z,18.20
2022-09-14T07:03:38.501Z,18.20
2022-09-14T07:06:08.294Z,18.30
2022-09-14T07:08:37.319Z,18.40
2022-09-14T07:11:07.877Z,18.40
2022-09-14T07:13:36.364Z,18.40
2022-09-14T07:16:04.402Z,18.40
2022-09-14T07:18:33.046Z,18.50
2022-09-14T07:21:05.838Z,18.50
2022-09-14T07:23:34.521Z,18.60
2022-09-14T07:26:03.831Z,18.50
2022-09-14T07:28:33.338Z,18.50
2022-09-14T07:31:01.912Z,18.40
2022-09-14T07:33:30.356Z,18.50
2022-09-14T07:36:06.052Z,18.50
2022-09-14T07:38:51.111Z,18.50
2022-09-14T07:41:20.908Z,18.50
2022-09-14T07:43:51.974Z,18.50
2022-09-14T07:46:20.234Z,18.60
2022-09-14T07:48:49.226Z,18.60
2022-09-14T07:51:17.767Z,18.60
2022-09-14T07:53:45.902Z,18.70
2022-09-14T07:56:16.471Z,18.70
2022-09-14T07:58:44.960Z,18.70
2022-09-14T08:01:17.808Z,18.80
2022-09-14T08:03:46.881Z,18.80
2022-09-14T08:06:16.694Z,18.90
2022-09-14T08:08:47.212Z,19.00
2022-09-14T08:11:17.306Z,19.00
2022-09-14T08:13:47.354Z,18.90
2022-09-14T08:16:18.365Z,18.90
2022-09-14T08:18:46.826Z,18.90
2022-09-14T08:21:16.891Z,18.90
2022-09-14T08:23:45.602Z,18.90
2022-09-14T08:26:15.184Z,18.90
2022-09-14T08:28:44.215Z,18.80
2022-09-14T08:31:14.204Z,18.80
2022-09-14T08:33:45.395Z,18.80
2022-09-14T08:36:17.100Z,18.80
2022-09-14T08:38:45.388Z,18.80
2022-09-14T08:41:25.559Z,18.80
2022-09-14T08:43:54.312Z,18.80
2022-09-14T08:46:29.814Z,18.80
2022-09-14T08:49:00.941Z,19.00
2022-09-14T08:51:29.373Z,19.00
2022-09-14T08:53:59.403Z,19.00
2022-09-14T08:56:32.547Z,19.10
2022-09-14T08:59:19.008Z,19.10
2022-09-14T09:01:56.017Z,19.20
2022-09-14T09:04:45.049Z,19.40
2022-09-14T09:07:20.082Z,19.40
2022-09-14T09:09:50.070Z,19.40
2022-09-14T09:12:20.740Z,19.40
2022-09-14T09:14:52.980Z,19.40
2022-09-14T09:17:26.412Z,19.40
2022-09-14T09:20:05.724Z,19.40
2022-09-14T09:22:40.809Z,19.40
2022-09-14T09:25:16.533Z,19.40
2022-09-14T09:27:44.444Z,19.40
2022-09-14T09:30:15.276Z,19.40
2022-09-14T09:32:43.629Z,19.50
2022-09-14T09:35:18.243Z,19.60
2022-09-14T09:37:46.437Z,19.80
2022-09-14T09:40:20.039Z,20.00
2022-09-14T09:43:07.716Z,20.20
2022-09-14T09:45:49.387Z,20.50
2022-09-14T09:48:20.368Z,20.80
2022-09-14T09:50:51.792Z,21.10
2022-09-14T09:53:23.443Z,21.30
2022-09-14T09:55:52.220Z,21.60
2022-09-14T09:58:28.572Z,21.90
2022-09-14T10:00:58.214Z,22.50
2022-09-14T10:03:32.181Z,22.90
2022-09-14T10:06:07.500Z,23.20
2022-09-14T10:08:42.164Z,23.30
2022-09-14T10:11:33.305Z,23.30
2022-09-14T10:14:01.780Z,23.50
2022-09-14T10:16:35.949Z,23.50
2022-09-14T10:19:04.576Z,23.40
2022-09-14T10:21:33.855Z,23.50
2022-09-14T10:24:07.719Z,23.70
2022-09-14T10:26:37.365Z,23.70
2022-09-14T10:29:39.005Z,23.80
2022-09-14T10:32:17.607Z,23.60
2022-09-14T10:34:45.616Z,23.60
2022-09-14T10:37:27.903Z,23.60
2022-09-14T10:40:08.268Z,23.60
2022-09-14T10:42:43.077Z,23.50
2022-09-14T10:45:19.764Z,23.50
2022-09-14T10:48:27.608Z,23.40
2022-09-14T10:51:04.718Z,23.40
2022-09-14T10:53:45.909Z,23.50
2022-09-14T10:56:20.561Z,23.60
2022-09-14T10:59:10.753Z,23.70
2022-09-14T11:02:04.863Z,23.90
2022-09-14T11:04:50.332Z,24.00
2022-09-14T11:07:26.525Z,24.20
2022-09-14T11:10:03.335Z,24.30
2022-09-14T11:12:37.075Z,24.40
2022-09-14T11:15:12.435Z,24.40
2022-09-14T11:17:51.495Z,24.40
2022-09-14T11:20:27.779Z,24.30
2022-09-14T11:23:05.012Z,24.30
2022-09-14T11:25:43.885Z,24.60
2022-09-14T11:28:17.931Z,24.80
2022-09-14T11:30:52.107Z,24.90
2022-09-14T11:33:30.920Z,25.00
2022-09-14T11:36:02.603Z,24.90
2022-09-14T11:38:33.343Z,24.90
2022-09-14T11:41:17.231Z,24.80
2022-09-14T11:43:50.592Z,24.70
2022-09-14T11:46:22.370Z,24.70
2022-09-14T11:48:55.809Z,24.80
2022-09-14T11:51:28.481Z,24.70
2022-09-14T11:53:56.564Z,24.70
2022-09-14T11:56:28.915Z,24.70
2022-09-14T11:58:58.329Z,24.70
2022-09-14T12:01:30.056Z,24.70
2022-09-14T12:04:14.691Z,24.70
2022-09-14T12:06:45.405Z,24.70
2022-09-14T12:09:34.108Z,24.70
2022-09-14T12:12:07.228Z,24.60
2022-09-14T12:14:40.441Z,24.50
2022-09-14T12:17:38.873Z,24.50
2022-09-14T12:20:32.151Z,24.50
2022-09-14T12:23:22.613Z,24.40
2022-09-14T12:26:01.569Z,24.40
2022-09-14T12:28:40.666Z,24.40
2022-09-14T12:31:32.082Z,24.30
2022-09-14T12:34:20.479Z,24.30
2022-09-14T12:37:20.017Z,24.20
2022-09-14T12:40:27.783Z,24.20
2022-09-14T12:42:56.026Z,24.00
2022-09-14T12:45:51.631Z,23.90
2022-09-14T12:48:58.773Z,23.90
2022-09-14T12:51:37.488Z,23.90
2022-09-14T12:54:18.861Z,23.80
2022-09-14T12:56:56.190Z,23.80
2022-09-14T12:59:30.960Z,23.70
2022-09-14T13:02:33.858Z,23.70
2022-09-14T13:05:07.242Z,23.70
2022-09-14T13:07:37.495Z,23.70
2022-09-14T13:10:07.595Z,23.70
2022-09-14T13:12:39.901Z,23.70
2022-09-14T13:15:17.275Z,23.70
2022-09-14T13:18:01.834Z,23.70
2022-09-14T13:20:31.733Z,23.70
2022-09-14T13:23:00.113Z,23.70
2022-09-14T13:25:34.380Z,23.70
2022-09-14T13:28:05.272Z,23.60
2022-09-14T13:30:34.778Z,23.70
2022-09-14T13:33:05.275Z,23.70
2022-09-14T13:35:36.548Z,23.60
2022-09-14T13:38:09.616Z,23.70
2022-09-14T13:40:38.191Z,23.70
2022-09-14T13:43:06.441Z,23.60
2022-09-14T13:45:35.078Z,23.60
2022-09-14T13:48:06.141Z,23.60
2022-09-14T13:50:35.077Z,23.50
2022-09-14T13:53:04.275Z,23.50
2022-09-14T13:55:45.007Z,23.40
2022-09-14T13:58:22.455Z,23.50
2022-09-14T14:00:58.990Z,23.40
2022-09-14T14:03:36.438Z,23.40
2022-09-14T14:06:20.472Z,23.30
2022-09-14T14:08:59.331Z,23.30
2022-09-14T14:11:34.331Z,23.20
2022-09-14T14:14:24.731Z,23.20
2022-09-14T14:17:25.412Z,23.10
2022-09-14T14:19:55.982Z,23.10
2022-09-14T14:22:27.998Z,23.10
2022-09-14T14:25:14.373Z,23.10
2022-09-14T14:27:46.203Z,23.10
2022-09-14T14:30:16.908Z,23.10
2022-09-14T14:32:45.076Z,23.10
2022-09-14T14:35:19.942Z,23.10
2022-09-14T14:37:48.694Z,23.10
2022-09-14T14:40:17.293Z,23.00
2022-09-14T14:42:45.809Z,23.00
2022-09-14T14:45:19.180Z,22.90
2022-09-14T14:47:48.278Z,22.80
2022-09-14T14:50:20.601Z,22.80
2022-09-14T14:52:48.473Z,22.70
2022-09-14T14:55:17.210Z,22.50
2022-09-14T14:57:45.493Z,22.50
2022-09-14T15:00:16.433Z,22.40
2022-09-14T15:02:44.601Z,22.30
2022-09-14T15:05:13.498Z,22.30
2022-09-14T15:07:43.125Z,22.20
2022-09-14T15:10:15.024Z,22.20
2022-09-14T15:12:43.016Z,22.20
2022-09-14T15:15:14.440Z,22.10
2022-09-14T15:17:42.582Z,22.10
2022-09-14T15:20:11.368Z,22.00
2022-09-14T15:22:41.252Z,22.00
2022-09-14T15:25:12.124Z,21.90
2022-09-14T15:27:40.556Z,21.90
2022-09-14T15:30:10.428Z,21.80
2022-09-14T15:32:38.421Z,21.70
2022-09-14T15:35:07.356Z,21.80
2022-09-14T15:37:35.232Z,21.70
2022-09-14T15:40:03.550Z,21.70
2022-09-14T15:42:32.817Z,21.70
2022-09-14T15:45:00.736Z,21.60
2022-09-14T15:47:31.649Z,21.60
2022-09-14T15:50:02.061Z,21.70
2022-09-14T15:52:30.005Z,21.70
2022-09-14T15:54:57.842Z,21.60
2022-09-14T15:57:25.829Z,21.70
2022-09-14T15:59:55.994Z,21.60
2022-09-14T16:02:24.076Z,21.60
2022-09-14T16:04:52.085Z,21.70
2022-09-14T16:07:19.884Z,21.60
2022-09-14T16:09:47.748Z,21.60
2022-09-14T16:12:15.594Z,21.60
2022-09-14T16:14:43.485Z,21.60
2022-09-14T16:17:12.785Z,21.60
2022-09-14T16:19:40.635Z,21.60
2022-09-14T16:22:08.528Z,21.60
2022-09-14T16:24:36.533Z,21.60
2022-09-14T16:27:04.420Z,21.60
2022-09-14T16:29:32.360Z,21.60
2022-09-14T16:32:00.399Z,21.60
2022-09-14T16:34:30.869Z,21.60
2022-09-14T16:36:59.073Z,21.60
2022-09-14T16:39:29.370Z,21.60
2022-09-14T16:41:57.383Z,21.60
2022-09-14T16:44:26.923Z,21.60
2022-09-14T16:46:57.543Z,21.60
2022-09-14T16:49:27.873Z,21.70
2022-09-14T16:52:00.735Z,21.70
2022-09-14T16:54:29.738Z,21.70
2022-09-14T16:56:59.278Z,21.80
2022-09-14T16:59:27.662Z,21.80
2022-09-14T17:01:56.093Z,21.80
2022-09-14T17:04:25.682Z,21.80
2022-09-14T17:06:55.868Z,21.80
2022-09-14T17:09:27.672Z,21.70
2022-09-14T17:11:57.212Z,21.80
2022-09-14T17:14:27.053Z,21.70
2022-09-14T17:16:54.993Z,21.70
2022-09-14T17:19:22.988Z,21.60
2022-09-14T17:21:51.431Z,21.60
2022-09-14T17:24:21.116Z,21.50
2022-09-14T17:26:50.581Z,21.50
2022-09-14T17:29:19.371Z,21.50
2022-09-14T17:31:47.319Z,21.50
2022-09-14T17:34:17.220Z,21.50
2022-09-14T17:36:45.442Z,21.50
2022-09-14T17:39:14.181Z,21.50
2022-09-14T17:41:43.632Z,21.50
2022-09-14T17:44:14.421Z,21.50
2022-09-14T17:46:52.945Z,21.50
2022-09-14T17:49:22.176Z,21.50
2022-09-14T17:51:50.438Z,21.50
2022-09-14T17:54:18.643Z,21.40
2022-09-14T17:56:46.564Z,21.20
2022-09-14T17:59:17.717Z,21.10
2022-09-14T18:01:45.699Z,21.00
2022-09-14T18:04:15.562Z,20.80
2022-09-14T18:06:45.253Z,20.70
2022-09-14T18:09:15.307Z,20.60
2022-09-14T18:11:43.846Z,20.40
2022-09-14T18:14:15.075Z,20.40
2022-09-14T18:16:44.097Z,20.30
2022-09-14T18:19:12.887Z,20.20
2022-09-14T18:21:41.331Z,20.10
2022-09-14T18:24:10.632Z,20.10
2022-09-14T18:26:38.987Z,20.10
2022-09-14T18:29:07.289Z,20.10
2022-09-14T18:31:36.754Z,20.20
2022-09-14T18:34:04.696Z,20.20
2022-09-14T18:36:32.596Z,20.30
2022-09-14T18:39:00.497Z,20.30
2022-09-14T18:41:31.174Z,20.10
2022-09-14T18:43:59.868Z,20.10
2022-09-14T18:46:28.860Z,19.90
2022-09-14T18:49:00.233Z,19.80
2022-09-14T18:51:29.404Z,19.80
2022-09-14T18:53:58.140Z,19.70
2022-09-14T18:56:26.701Z,19.60
2022-09-14T18:58:54.581Z,19.50
2022-09-14T19:01:22.533Z,19.40
2022-09-14T19:03:50.699Z,19.40
2022-09-14T19:06:20.822Z,19.30
2022-09-14T19:08:48.736Z,19.20
2022-09-14T19:11:18.533Z,19.20
2022-09-14T19:13:47.328Z,19.20
2022-09-14T19:16:16.967Z,19.20
2022-09-14T19:18:46.000Z,19.10
2022-09-14T19:21:15.547Z,19.10
2022-09-14T19:23:44.810Z,18.90
2022-09-14T19:26:17.058Z,18.90
2022-09-14T19:28:45.757Z,18.80
2022-09-14T19:31:15.485Z,18.80
2022-09-14T19:33:45.720Z,18.80
2022-09-14T19:36:16.895Z,18.80
2022-09-14T19:38:46.173Z,18.80
2022-09-14T19:41:14.079Z,18.80
2022-09-14T19:43:41.954Z,18.70
2022-09-14T19:46:13.393Z,18.70
2022-09-14T19:48:41.933Z,18.60
2022-09-14T19:51:12.012Z,18.60
2022-09-14T19:53:40.441Z,18.50
2022-09-14T19:56:15.219Z,18.50
2022-09-14T19:58:44.745Z,18.40
2022-09-14T20:01:12.766Z,18.40
2022-09-14T20:03:41.107Z,18.40
2022-09-14T20:06:11.777Z,18.40
2022-09-14T20:08:40.101Z,18.40
2022-09-14T20:11:12.786Z,18.40
2022-09-14T20:13:42.268Z,18.40
2022-09-14T20:16:12.537Z,18.40
2022-09-14T20:18:40.759Z,18.40
2022-09-14T20:21:10.072Z,18.40
2022-09-14T20:23:45.304Z,18.40
2022-09-14T20:26:28.452Z,18.40
2022-09-14T20:28:57.446Z,18.30
2022-09-14T20:31:25.391Z,18.30
2022-09-14T20:33:53.654Z,18.30
2022-09-14T20:36:23.035Z,18.20
2022-09-14T20:38:54.104Z,18.20
2022-09-14T20:41:23.161Z,18.20
2022-09-14T20:43:53.076Z,18.20
2022-09-14T20:46:23.298Z,18.20
2022-09-14T20:48:51.928Z,18.20
2022-09-14T20:51:21.404Z,18.20
2022-09-14T20:53:49.679Z,18.20
2022-09-14T20:56:20.215Z,18.20
2022-09-14T20:58:48.699Z,18.20
2022-09-14T21:01:20.159Z,18.20
2022-09-14T21:03:49.697Z,18.20
2022-09-14T21:06:19.398Z,18.20
2022-09-14T21:08:47.674Z,18.20
2022-09-14T21:11:17.798Z,18.20
2022-09-14T21:13:46.150Z,18.20
2022-09-14T21:16:18.869Z,18.20
2022-09-14T21:18:49.104Z,18.20
2022-09-14T21:21:19.117Z,18.20
2022-09-14T21:23:48.273Z,18.20
2022-09-14T21:26:16.534Z,18.20
2022-09-14T21:28:44.472Z,18.40
2022-09-14T21:31:14.402Z,18.40
2022-09-14T21:33:44.912Z,18.40
2022-09-14T21:36:14.292Z,18.40
2022-09-14T21:38:42.562Z,18.30
2022-09-14T21:41:12.296Z,18.30
2022-09-14T21:43:41.502Z,18.20
2022-09-14T21:46:10.575Z,18.20
2022-09-14T21:48:39.142Z,18.30
2022-09-14T21:51:11.373Z,18.30
2022-09-14T21:53:39.193Z,18.40
2022-09-14T21:56:07.661Z,18.30
2022-09-14T21:58:36.053Z,18.30
2022-09-14T22:01:03.983Z,18.20
2022-09-14T22:03:32.075Z,18.20
2022-09-14T22:06:02.288Z,18.20
2022-09-14T22:08:32.610Z,18.20
2022-09-14T22:11:04.012Z,18.20
2022-09-14T22:13:32.070Z,18.20
2022-09-14T22:16:00.487Z,18.20
2022-09-14T22:18:28.691Z,18.20
2022-09-14T22:20:58.069Z,18.20
2022-09-14T22:23:25.950Z,18.20
2022-09-14T22:25:55.186Z,18.20
2022-09-14T22:28:23.031Z,18.20
2022-09-14T22:30:53.133Z,18.20
2022-09-14T22:33:22.261Z,18.20
2022-09-14T22:35:55.963Z,18.20
2022-09-14T22:38:25.600Z,18.20
2022-09-14T22:40:59.662Z,18.20
2022-09-14T22:43:28.819Z,18.20
2022-09-14T22:45:57.185Z,18.20
2022-09-14T22:48:25.497Z,18.20
2022-09-14T22:50:56.627Z,18.20
2022-09-14T22:53:25.799Z,18.20
2022-09-14T22:55:54.139Z,18.20
2022-09-14T22:58:25.575Z,18.20
2022-09-14T23:00:54.102Z,18.20
2022-09-14T23:03:22.061Z,18.30
2022-09-14T23:05:51.484Z,18.20
2022-09-14T23:08:20.397Z,18.30
2022-09-14T23:10:49.854Z,18.20
2022-09-14T23:13:18.136Z,18.20
2022-09-14T23:15:47.458Z,18.30
2022-09-14T23:18:15.724Z,18.30
2022-09-14T23:20:45.820Z,18.40
2022-09-14T23:23:13.895Z,18.30
2022-09-14T23:25:42.537Z,18.30
2022-09-14T23:28:12.613Z,18.30
2022-09-14T23:30:40.774Z,18.30
2022-09-14T23:33:10.376Z,18.20
2022-09-14T23:35:38.168Z,18.20
2022-09-14T23:38:06.300Z,18.20
2022-09-14T23:40:34.119Z,18.20
2022-09-14T23:43:01.936Z,18.20
2022-09-14T23:45:29.832Z,18.20
2022-09-14T23:47:57.722Z,18.20
2022-09-14T23:50:28.362Z,18.20
2022-09-14T23:52:57.483Z,18.20
2022-09-14T23:55:25.523Z,18.20
2022-09-14T23:57:53.392Z,18.20
